sensor_id;sensor_type;location;lat;lon;timestamp;temperature;humidity
34574;DHT22;20809;49.594;8.734;2023-03-26T00:01:29;8.10;99.90
34574;DHT22;20809;49.594;8.734;2023-03-26T00:04:32;8.00;99.90
34574;DHT22;20809;49.594;8.734;2023-03-26T00:07:33;8.00;99.90
34574;DHT22;20809;49.594;8.734;2023-03-26T00:10:35;7.90;99.90
34574;DHT22;20809;49.594;8.734;2023-03-26T00:13:37;7.90;99.90
34574;DHT22;20809;49.594;8.734;2023-03-26T00:16:38;7.90;99.90
34574;DHT22;20809;49.594;8.734;2023-03-26T00:19:39;7.90;99.90
34574;DHT22;20809;49.594;8.734;2023-03-26T00:22:40;7.80;99.90
34574;DHT22;20809;49.594;8.734;2023-03-26T00:25:41;7.70;99.90
34574;DHT22;20809;49.594;8.734;2023-03-26T00:28:43;7.60;99.90
34574;DHT22;20809;49.594;8.734;2023-03-26T00:31:44;7.50;99.90
34574;DHT22;20809;49.594;8.734;2023-03-26T00:34:45;7.50;99.90
34574;DHT22;20809;49.594;8.734;2023-03-26T00:37:46;7.50;99.90
34574;DHT22;20809;49.594;8.734;2023-03-26T00:40:48;7.40;99.90
34574;DHT22;20809;49.594;8.734;2023-03-26T00:43:59;7.40;99.90
34574;DHT22;20809;49.594;8.734;2023-03-26T00:47:00;7.40;99.90
34574;DHT22;20809;49.594;8.734;2023-03-26T00:50:00;7.40;99.90
34574;DHT22;20809;49.594;8.734;2023-03-26T00:53:03;7.40;99.90
34574;DHT22;20809;49.594;8.734;2023-03-26T00:59:07;7.60;99.90
34574;DHT22;20809;49.594;8.734;2023-03-26T01:02:13;7.70;99.90
34574;DHT22;20809;49.594;8.734;2023-03-26T01:08:41;7.90;99.90
34574;DHT22;20809;49.594;8.734;2023-03-26T01:11:43;7.80;99.90
34574;DHT22;20809;49.594;8.734;2023-03-26T01:14:45;7.80;99.90
34574;DHT22;20809;49.594;8.734;2023-03-26T01:17:47;7.70;99.90
34574;DHT22;20809;49.594;8.734;2023-03-26T01:20:53;7.70;99.90
34574;DHT22;20809;49.594;8.734;2023-03-26T01:24:06;7.60;99.90
34574;DHT22;20809;49.594;8.734;2023-03-26T01:27:39;7.60;99.90
34574;DHT22;20809;49.594;8.734;2023-03-26T01:31:00;7.50;99.90
34574;DHT22;20809;49.594;8.734;2023-03-26T01:40:33;7.30;99.90
34574;DHT22;20809;49.594;8.734;2023-03-26T01:43:53;7.30;99.90
34574;DHT22;20809;49.594;8.734;2023-03-26T01:46:59;7.30;99.90
34574;DHT22;20809;49.594;8.734;2023-03-26T01:50:00;7.20;99.90
34574;DHT22;20809;49.594;8.734;2023-03-26T01:53:01;7.20;99.90
34574;DHT22;20809;49.594;8.734;2023-03-26T02:02:19;7.20;99.90
34574;DHT22;20809;49.594;8.734;2023-03-26T02:05:56;7.20;99.90
34574;DHT22;20809;49.594;8.734;2023-03-26T02:09:05;7.30;99.90
34574;DHT22;20809;49.594;8.734;2023-03-26T02:12:07;7.30;99.90
34574;DHT22;20809;49.594;8.734;2023-03-26T02:15:11;7.30;99.90
34574;DHT22;20809;49.594;8.734;2023-03-26T02:18:11;7.40;99.90
34574;DHT22;20809;49.594;8.734;2023-03-26T02:21:18;7.40;99.90
34574;DHT22;20809;49.594;8.734;2023-03-26T02:24:20;7.50;99.90
34574;DHT22;20809;49.594;8.734;2023-03-26T02:27:22;7.50;99.90
34574;DHT22;20809;49.594;8.734;2023-03-26T02:30:24;7.50;99.90
34574;DHT22;20809;49.594;8.734;2023-03-26T02:33:25;7.50;99.90
34574;DHT22;20809;49.594;8.734;2023-03-26T02:36:26;7.40;99.90
34574;DHT22;20809;49.594;8.734;2023-03-26T02:39:27;7.40;99.90
34574;DHT22;20809;49.594;8.734;2023-03-26T02:42:28;7.40;99.90
34574;DHT22;20809;49.594;8.734;2023-03-26T02:45:29;7.40;99.90
34574;DHT22;20809;49.594;8.734;2023-03-26T02:48:30;7.30;99.90
34574;DHT22;20809;49.594;8.734;2023-03-26T02:51:33;7.30;99.90
34574;DHT22;20809;49.594;8.734;2023-03-26T02:54:35;7.30;99.90
34574;DHT22;20809;49.594;8.734;2023-03-26T02:57:36;7.30;99.90
34574;DHT22;20809;49.594;8.734;2023-03-26T03:00:37;7.40;99.90
34574;DHT22;20809;49.594;8.734;2023-03-26T03:03:38;7.40;99.90
34574;DHT22;20809;49.594;8.734;2023-03-26T03:06:38;7.50;99.90
34574;DHT22;20809;49.594;8.734;2023-03-26T03:09:40;7.50;99.90
34574;DHT22;20809;49.594;8.734;2023-03-26T03:12:41;7.60;99.90
34574;DHT22;20809;49.594;8.734;2023-03-26T03:15:42;7.60;99.90
34574;DHT22;20809;49.594;8.734;2023-03-26T03:18:43;7.70;99.90
34574;DHT22;20809;49.594;8.734;2023-03-26T03:21:44;7.70;99.90
34574;DHT22;20809;49.594;8.734;2023-03-26T03:24:45;7.70;99.90
34574;DHT22;20809;49.594;8.734;2023-03-26T03:27:46;7.80;99.90
34574;DHT22;20809;49.594;8.734;2023-03-26T03:30:47;7.90;99.90
34574;DHT22;20809;49.594;8.734;2023-03-26T03:33:48;7.90;99.90
34574;DHT22;20809;49.594;8.734;2023-03-26T03:36:49;7.90;99.90
34574;DHT22;20809;49.594;8.734;2023-03-26T03:39:52;7.80;99.90
34574;DHT22;20809;49.594;8.734;2023-03-26T03:42:53;7.60;99.90
34574;DHT22;20809;49.594;8.734;2023-03-26T03:45:54;7.50;99.90
34574;DHT22;20809;49.594;8.734;2023-03-26T03:48:54;7.50;99.90
34574;DHT22;20809;49.594;8.734;2023-03-26T03:51:55;7.50;99.90
34574;DHT22;20809;49.594;8.734;2023-03-26T03:54:56;7.40;99.90
34574;DHT22;20809;49.594;8.734;2023-03-26T03:57:57;7.40;99.90
34574;DHT22;20809;49.594;8.734;2023-03-26T04:00:58;7.50;99.90
34574;DHT22;20809;49.594;8.734;2023-03-26T04:04:00;7.50;99.90
34574;DHT22;20809;49.594;8.734;2023-03-26T04:07:04;7.60;99.90
34574;DHT22;20809;49.594;8.734;2023-03-26T04:10:07;7.50;99.90
34574;DHT22;20809;49.594;8.734;2023-03-26T04:13:10;7.40;99.90
34574;DHT22;20809;49.594;8.734;2023-03-26T04:16:10;7.50;99.90
34574;DHT22;20809;49.594;8.734;2023-03-26T04:19:11;7.50;99.90
34574;DHT22;20809;49.594;8.734;2023-03-26T04:22:13;7.40;99.90
34574;DHT22;20809;49.594;8.734;2023-03-26T04:25:14;7.40;99.90
34574;DHT22;20809;49.594;8.734;2023-03-26T04:28:43;7.50;99.90
34574;DHT22;20809;49.594;8.734;2023-03-26T04:31:45;7.40;99.90
34574;DHT22;20809;49.594;8.734;2023-03-26T04:34:49;7.30;99.90
34574;DHT22;20809;49.594;8.734;2023-03-26T04:37:50;7.30;99.90
34574;DHT22;20809;49.594;8.734;2023-03-26T04:40:52;7.20;99.90
34574;DHT22;20809;49.594;8.734;2023-03-26T04:43:53;7.00;99.90
34574;DHT22;20809;49.594;8.734;2023-03-26T04:46:54;7.00;99.90
34574;DHT22;20809;49.594;8.734;2023-03-26T04:49:55;7.10;99.90
34574;DHT22;20809;49.594;8.734;2023-03-26T04:52:56;7.10;99.90
34574;DHT22;20809;49.594;8.734;2023-03-26T04:56:07;7.10;99.90
34574;DHT22;20809;49.594;8.734;2023-03-26T04:59:24;7.10;99.90
34574;DHT22;20809;49.594;8.734;2023-03-26T05:02:29;7.20;99.90
34574;DHT22;20809;49.594;8.734;2023-03-26T05:05:32;7.20;99.90
34574;DHT22;20809;49.594;8.734;2023-03-26T05:08:32;7.10;99.90
34574;DHT22;20809;49.594;8.734;2023-03-26T05:11:33;7.10;99.90
34574;DHT22;20809;49.594;8.734;2023-03-26T05:14:34;7.10;99.90
34574;DHT22;20809;49.594;8.734;2023-03-26T05:17:35;7.10;99.90
34574;DHT22;20809;49.594;8.734;2023-03-26T05:20:41;7.10;99.90
34574;DHT22;20809;49.594;8.734;2023-03-26T05:23:45;7.10;99.90
34574;DHT22;20809;49.594;8.734;2023-03-26T05:26:46;7.10;99.90
34574;DHT22;20809;49.594;8.734;2023-03-26T05:29:49;7.10;99.90
34574;DHT22;20809;49.594;8.734;2023-03-26T05:32:49;7.20;99.90
34574;DHT22;20809;49.594;8.734;2023-03-26T05:36:06;7.20;99.90
34574;DHT22;20809;49.594;8.734;2023-03-26T05:39:08;7.20;99.90
34574;DHT22;20809;49.594;8.734;2023-03-26T05:42:09;7.10;99.90
34574;DHT22;20809;49.594;8.734;2023-03-26T05:45:11;7.20;99.90
34574;DHT22;20809;49.594;8.734;2023-03-26T05:48:12;7.20;99.90
34574;DHT22;20809;49.594;8.734;2023-03-26T05:51:21;7.20;99.90
34574;DHT22;20809;49.594;8.734;2023-03-26T05:54:22;7.10;99.90
34574;DHT22;20809;49.594;8.734;2023-03-26T05:57:23;7.00;99.90
34574;DHT22;20809;49.594;8.734;2023-03-26T06:00:27;7.00;99.90
34574;DHT22;20809;49.594;8.734;2023-03-26T06:03:35;6.90;99.90
34574;DHT22;20809;49.594;8.734;2023-03-26T06:06:39;6.90;99.90
34574;DHT22;20809;49.594;8.734;2023-03-26T06:09:40;7.00;99.90
34574;DHT22;20809;49.594;8.734;2023-03-26T06:12:40;6.90;99.90
34574;DHT22;20809;49.594;8.734;2023-03-26T06:15:42;7.00;99.90
34574;DHT22;20809;49.594;8.734;2023-03-26T06:18:43;6.80;99.90
34574;DHT22;20809;49.594;8.734;2023-03-26T06:21:44;6.80;99.90
34574;DHT22;20809;49.594;8.734;2023-03-26T06:24:45;6.80;99.90
34574;DHT22;20809;49.594;8.734;2023-03-26T06:27:46;6.80;99.90
34574;DHT22;20809;49.594;8.734;2023-03-26T06:30:47;6.70;99.90
34574;DHT22;20809;49.594;8.734;2023-03-26T06:33:48;6.70;99.90
34574;DHT22;20809;49.594;8.734;2023-03-26T06:36:48;6.70;99.90
34574;DHT22;20809;49.594;8.734;2023-03-26T06:39:52;6.80;99.90
34574;DHT22;20809;49.594;8.734;2023-03-26T06:42:56;6.80;99.90
34574;DHT22;20809;49.594;8.734;2023-03-26T06:46:00;6.80;99.90
34574;DHT22;20809;49.594;8.734;2023-03-26T06:49:01;6.80;99.90
34574;DHT22;20809;49.594;8.734;2023-03-26T06:52:05;6.80;99.90
34574;DHT22;20809;49.594;8.734;2023-03-26T06:55:07;6.90;99.90
34574;DHT22;20809;49.594;8.734;2023-03-26T06:58:12;7.00;99.90
34574;DHT22;20809;49.594;8.734;2023-03-26T07:01:13;7.00;99.90
34574;DHT22;20809;49.594;8.734;2023-03-26T07:04:14;7.00;99.90
34574;DHT22;20809;49.594;8.734;2023-03-26T07:07:15;7.10;99.90
34574;DHT22;20809;49.594;8.734;2023-03-26T07:10:17;7.20;99.90
34574;DHT22;20809;49.594;8.734;2023-03-26T07:13:18;7.20;99.90
34574;DHT22;20809;49.594;8.734;2023-03-26T07:16:22;7.20;99.90
34574;DHT22;20809;49.594;8.734;2023-03-26T07:19:23;7.30;99.90
34574;DHT22;20809;49.594;8.734;2023-03-26T07:22:24;7.40;99.90
34574;DHT22;20809;49.594;8.734;2023-03-26T07:25:25;7.30;99.90
34574;DHT22;20809;49.594;8.734;2023-03-26T07:28:39;7.30;99.90
34574;DHT22;20809;49.594;8.734;2023-03-26T07:41:49;7.50;99.90
34574;DHT22;20809;49.594;8.734;2023-03-26T07:45:08;7.60;99.90
34574;DHT22;20809;49.594;8.734;2023-03-26T07:48:17;7.70;99.90
34574;DHT22;20809;49.594;8.734;2023-03-26T07:51:18;7.80;99.90
34574;DHT22;20809;49.594;8.734;2023-03-26T07:54:19;7.90;99.90
34574;DHT22;20809;49.594;8.734;2023-03-26T08:00:51;8.10;99.90
34574;DHT22;20809;49.594;8.734;2023-03-26T08:14:32;8.40;99.90
34574;DHT22;20809;49.594;8.734;2023-03-26T08:20:59;8.50;99.90
34574;DHT22;20809;49.594;8.734;2023-03-26T08:24:26;8.60;99.90
34574;DHT22;20809;49.594;8.734;2023-03-26T08:30:58;8.50;99.90
34574;DHT22;20809;49.594;8.734;2023-03-26T08:34:02;8.20;99.90
34574;DHT22;20809;49.594;8.734;2023-03-26T08:37:03;8.00;99.90
34574;DHT22;20809;49.594;8.734;2023-03-26T08:40:04;8.00;99.90
34574;DHT22;20809;49.594;8.734;2023-03-26T08:46:49;8.00;99.90
34574;DHT22;20809;49.594;8.734;2023-03-26T08:50:02;7.90;99.90
34574;DHT22;20809;49.594;8.734;2023-03-26T09:44:56;9.50;99.90
34574;DHT22;20809;49.594;8.734;2023-03-26T09:51:43;10.10;99.90
34574;DHT22;20809;49.594;8.734;2023-03-26T09:55:00;10.70;99.90
34574;DHT22;20809;49.594;8.734;2023-03-26T10:27:59;11.90;99.90
34574;DHT22;20809;49.594;8.734;2023-03-26T10:34:47;12.30;99.90
34574;DHT22;20809;49.594;8.734;2023-03-26T10:41:50;12.70;99.90
34574;DHT22;20809;49.594;8.734;2023-03-26T10:57:52;12.40;99.90
34574;DHT22;20809;49.594;8.734;2023-03-26T11:01:14;12.60;99.90
34574;DHT22;20809;49.594;8.734;2023-03-26T11:10:58;11.40;99.90
34574;DHT22;20809;49.594;8.734;2023-03-26T11:14:09;10.80;99.90
34574;DHT22;20809;49.594;8.734;2023-03-26T11:30:39;10.00;99.90
34574;DHT22;20809;49.594;8.734;2023-03-26T11:33:45;9.90;99.90
34574;DHT22;20809;49.594;8.734;2023-03-26T11:36:51;10.00;99.90
34574;DHT22;20809;49.594;8.734;2023-03-26T11:39:55;10.60;99.90
34574;DHT22;20809;49.594;8.734;2023-03-26T11:43:07;11.40;99.90
34574;DHT22;20809;49.594;8.734;2023-03-26T11:46:13;12.10;99.90
34574;DHT22;20809;49.594;8.734;2023-03-26T11:49:19;12.30;99.90
34574;DHT22;20809;49.594;8.734;2023-03-26T11:52:21;12.40;99.90
34574;DHT22;20809;49.594;8.734;2023-03-26T11:55:26;12.10;99.90
34574;DHT22;20809;49.594;8.734;2023-03-26T11:58:28;11.90;99.90
34574;DHT22;20809;49.594;8.734;2023-03-26T12:05:22;11.60;99.90
34574;DHT22;20809;49.594;8.734;2023-03-26T12:08:33;11.60;99.90
34574;DHT22;20809;49.594;8.734;2023-03-26T12:11:40;11.50;99.90
34574;DHT22;20809;49.594;8.734;2023-03-26T12:14:41;11.10;99.90
34574;DHT22;20809;49.594;8.734;2023-03-26T12:17:43;10.80;99.90
34574;DHT22;20809;49.594;8.734;2023-03-26T12:20:44;10.60;99.90
34574;DHT22;20809;49.594;8.734;2023-03-26T12:24:04;10.60;99.90
34574;DHT22;20809;49.594;8.734;2023-03-26T12:30:24;10.60;99.90
34574;DHT22;20809;49.594;8.734;2023-03-26T12:33:32;10.80;99.90
34574;DHT22;20809;49.594;8.734;2023-03-26T12:36:35;11.20;99.90
34574;DHT22;20809;49.594;8.734;2023-03-26T12:39:42;11.40;99.90
34574;DHT22;20809;49.594;8.734;2023-03-26T12:42:55;11.40;99.90
34574;DHT22;20809;49.594;8.734;2023-03-26T12:45:56;11.60;99.90
34574;DHT22;20809;49.594;8.734;2023-03-26T12:49:03;11.90;99.90
34574;DHT22;20809;49.594;8.734;2023-03-26T12:52:31;12.20;99.90
34574;DHT22;20809;49.594;8.734;2023-03-26T12:55:53;12.40;99.90
34574;DHT22;20809;49.594;8.734;2023-03-26T13:08:59;12.20;99.90
34574;DHT22;20809;49.594;8.734;2023-03-26T13:15:50;11.70;99.90
34574;DHT22;20809;49.594;8.734;2023-03-26T13:19:00;11.50;99.90
34574;DHT22;20809;49.594;8.734;2023-03-26T13:25:46;11.50;99.90
34574;DHT22;20809;49.594;8.734;2023-03-26T13:32:17;12.00;99.90
34574;DHT22;20809;49.594;8.734;2023-03-26T13:36:06;12.20;99.90
34574;DHT22;20809;49.594;8.734;2023-03-26T13:45:58;12.70;99.90
34574;DHT22;20809;49.594;8.734;2023-03-26T13:49:12;12.70;99.90
34574;DHT22;20809;49.594;8.734;2023-03-26T14:02:36;13.90;99.90
34574;DHT22;20809;49.594;8.734;2023-03-26T14:05:47;13.80;99.90
34574;DHT22;20809;49.594;8.734;2023-03-26T14:09:02;13.70;99.90
34574;DHT22;20809;49.594;8.734;2023-03-26T14:19:03;13.50;99.90
34574;DHT22;20809;49.594;8.734;2023-03-26T14:22:24;13.50;99.90
34574;DHT22;20809;49.594;8.734;2023-03-26T14:32:23;13.80;99.90
34574;DHT22;20809;49.594;8.734;2023-03-26T14:42:41;13.70;99.90
34574;DHT22;20809;49.594;8.734;2023-03-26T14:52:46;13.40;99.90
34574;DHT22;20809;49.594;8.734;2023-03-26T14:59:47;13.30;99.90
34574;DHT22;20809;49.594;8.734;2023-03-26T15:06:38;12.90;99.90
34574;DHT22;20809;49.594;8.734;2023-03-26T15:10:21;12.80;99.90
34574;DHT22;20809;49.594;8.734;2023-03-26T15:13:42;12.50;99.90
34574;DHT22;20809;49.594;8.734;2023-03-26T15:45:10;10.90;99.90
34574;DHT22;20809;49.594;8.734;2023-03-26T15:48:44;10.80;99.90
34574;DHT22;20809;49.594;8.734;2023-03-26T15:55:33;10.80;99.90
34574;DHT22;20809;49.594;8.734;2023-03-26T15:59:01;10.60;99.90
34574;DHT22;20809;49.594;8.734;2023-03-26T16:08:36;10.20;99.90
34574;DHT22;20809;49.594;8.734;2023-03-26T16:18:19;10.00;99.90
34574;DHT22;20809;49.594;8.734;2023-03-26T16:24:36;9.90;99.90
34574;DHT22;20809;49.594;8.734;2023-03-26T16:27:40;9.90;99.90
34574;DHT22;20809;49.594;8.734;2023-03-26T16:30:41;9.90;99.90
34574;DHT22;20809;49.594;8.734;2023-03-26T16:40:33;9.60;99.90
34574;DHT22;20809;49.594;8.734;2023-03-26T16:50:46;9.30;99.90
34574;DHT22;20809;49.594;8.734;2023-03-26T16:57:42;9.10;99.90
34574;DHT22;20809;49.594;8.734;2023-03-26T17:04:31;8.90;99.90
34574;DHT22;20809;49.594;8.734;2023-03-26T17:07:51;8.90;99.90
34574;DHT22;20809;49.594;8.734;2023-03-26T17:17:41;8.80;99.90
34574;DHT22;20809;49.594;8.734;2023-03-26T17:33:52;8.50;99.90
34574;DHT22;20809;49.594;8.734;2023-03-26T17:36:54;8.50;99.90
34574;DHT22;20809;49.594;8.734;2023-03-26T17:46:42;8.30;99.90
34574;DHT22;20809;49.594;8.734;2023-03-26T17:49:44;8.30;99.90
34574;DHT22;20809;49.594;8.734;2023-03-26T17:53:12;8.20;99.90
34574;DHT22;20809;49.594;8.734;2023-03-26T17:56:23;8.30;99.90
34574;DHT22;20809;49.594;8.734;2023-03-26T17:59:26;8.30;99.90
34574;DHT22;20809;49.594;8.734;2023-03-26T18:02:36;8.30;99.90
34574;DHT22;20809;49.594;8.734;2023-03-26T18:05:41;8.20;99.90
34574;DHT22;20809;49.594;8.734;2023-03-26T18:08:46;8.10;99.90
34574;DHT22;20809;49.594;8.734;2023-03-26T18:19:14;7.90;99.90
34574;DHT22;20809;49.594;8.734;2023-03-26T18:22:25;7.80;99.90
34574;DHT22;20809;49.594;8.734;2023-03-26T18:25:31;7.70;99.90
34574;DHT22;20809;49.594;8.734;2023-03-26T18:29:26;7.50;99.90
34574;DHT22;20809;49.594;8.734;2023-03-26T18:35:17;7.50;99.90
34574;DHT22;20809;49.594;8.734;2023-03-26T18:38:22;7.40;99.90
34574;DHT22;20809;49.594;8.734;2023-03-26T18:41:29;7.50;99.90
34574;DHT22;20809;49.594;8.734;2023-03-26T18:44:34;7.50;99.90
34574;DHT22;20809;49.594;8.734;2023-03-26T18:47:36;7.50;99.90
34574;DHT22;20809;49.594;8.734;2023-03-26T18:50:41;7.50;99.90
34574;DHT22;20809;49.594;8.734;2023-03-26T18:53:49;7.50;99.90
34574;DHT22;20809;49.594;8.734;2023-03-26T18:56:50;7.50;99.90
34574;DHT22;20809;49.594;8.734;2023-03-26T18:59:52;7.50;99.90
34574;DHT22;20809;49.594;8.734;2023-03-26T19:03:06;7.60;99.90
34574;DHT22;20809;49.594;8.734;2023-03-26T19:06:09;7.60;99.90
34574;DHT22;20809;49.594;8.734;2023-03-26T19:09:12;7.60;99.90
34574;DHT22;20809;49.594;8.734;2023-03-26T19:12:22;7.70;99.90
34574;DHT22;20809;49.594;8.734;2023-03-26T19:15:29;7.70;99.90
34574;DHT22;20809;49.594;8.734;2023-03-26T19:18:31;7.70;99.90
34574;DHT22;20809;49.594;8.734;2023-03-26T19:21:33;7.70;99.90
34574;DHT22;20809;49.594;8.734;2023-03-26T19:24:35;7.80;99.90
34574;DHT22;20809;49.594;8.734;2023-03-26T19:27:36;7.80;99.90
34574;DHT22;20809;49.594;8.734;2023-03-26T19:30:39;7.80;99.90
34574;DHT22;20809;49.594;8.734;2023-03-26T19:33:42;7.80;99.90
34574;DHT22;20809;49.594;8.734;2023-03-26T19:37:47;7.80;99.90
34574;DHT22;20809;49.594;8.734;2023-03-26T19:40:35;7.80;99.90
34574;DHT22;20809;49.594;8.734;2023-03-26T19:43:36;7.80;99.90
34574;DHT22;20809;49.594;8.734;2023-03-26T19:46:36;7.80;99.90
34574;DHT22;20809;49.594;8.734;2023-03-26T19:49:57;7.60;99.90
34574;DHT22;20809;49.594;8.734;2023-03-26T19:56:14;7.40;99.90
34574;DHT22;20809;49.594;8.734;2023-03-26T19:59:15;7.40;99.90
34574;DHT22;20809;49.594;8.734;2023-03-26T20:02:16;7.30;99.90
34574;DHT22;20809;49.594;8.734;2023-03-26T20:05:18;7.30;99.90
34574;DHT22;20809;49.594;8.734;2023-03-26T20:08:22;7.20;99.90
34574;DHT22;20809;49.594;8.734;2023-03-26T20:11:34;7.20;99.90
34574;DHT22;20809;49.594;8.734;2023-03-26T20:14:37;7.30;99.90
34574;DHT22;20809;49.594;8.734;2023-03-26T20:17:38;7.20;99.90
34574;DHT22;20809;49.594;8.734;2023-03-26T20:20:42;7.20;99.90
34574;DHT22;20809;49.594;8.734;2023-03-26T20:23:43;7.10;99.90
34574;DHT22;20809;49.594;8.734;2023-03-26T20:26:45;7.10;99.90
34574;DHT22;20809;49.594;8.734;2023-03-26T20:29:46;7.10;99.90
34574;DHT22;20809;49.594;8.734;2023-03-26T20:32:47;7.20;99.90
34574;DHT22;20809;49.594;8.734;2023-03-26T20:35:51;7.10;99.90
34574;DHT22;20809;49.594;8.734;2023-03-26T20:38:52;7.10;99.90
34574;DHT22;20809;49.594;8.734;2023-03-26T20:41:54;7.00;99.90
34574;DHT22;20809;49.594;8.734;2023-03-26T20:44:55;7.10;99.90
34574;DHT22;20809;49.594;8.734;2023-03-26T20:47:57;7.00;99.90
34574;DHT22;20809;49.594;8.734;2023-03-26T20:50:58;7.00;99.90
34574;DHT22;20809;49.594;8.734;2023-03-26T20:54:00;7.00;99.90
34574;DHT22;20809;49.594;8.734;2023-03-26T20:57:01;6.90;99.90
34574;DHT22;20809;49.594;8.734;2023-03-26T21:00:02;6.90;99.90
34574;DHT22;20809;49.594;8.734;2023-03-26T21:03:11;6.90;99.90
34574;DHT22;20809;49.594;8.734;2023-03-26T21:06:13;6.90;99.90
34574;DHT22;20809;49.594;8.734;2023-03-26T21:09:16;6.90;99.90
34574;DHT22;20809;49.594;8.734;2023-03-26T21:12:26;7.00;99.90
34574;DHT22;20809;49.594;8.734;2023-03-26T21:15:29;7.00;99.90
34574;DHT22;20809;49.594;8.734;2023-03-26T21:18:30;7.10;99.90
34574;DHT22;20809;49.594;8.734;2023-03-26T21:28:35;7.10;99.90
34574;DHT22;20809;49.594;8.734;2023-03-26T21:31:38;7.10;99.90
34574;DHT22;20809;49.594;8.734;2023-03-26T21:34:39;7.10;99.90
34574;DHT22;20809;49.594;8.734;2023-03-26T21:37:41;7.10;99.90
34574;DHT22;20809;49.594;8.734;2023-03-26T21:40:45;7.00;99.90
34574;DHT22;20809;49.594;8.734;2023-03-26T21:43:46;7.00;99.90
34574;DHT22;20809;49.594;8.734;2023-03-26T21:46:47;7.00;99.90
34574;DHT22;20809;49.594;8.734;2023-03-26T21:49:48;7.00;99.90
34574;DHT22;20809;49.594;8.734;2023-03-26T21:52:50;6.90;99.90
34574;DHT22;20809;49.594;8.734;2023-03-26T21:56:04;6.90;99.90
34574;DHT22;20809;49.594;8.734;2023-03-26T21:59:36;7.00;99.90
34574;DHT22;20809;49.594;8.734;2023-03-26T22:05:57;7.00;99.90
34574;DHT22;20809;49.594;8.734;2023-03-26T22:08:59;6.90;99.90
34574;DHT22;20809;49.594;8.734;2023-03-26T22:12:00;6.90;99.90
34574;DHT22;20809;49.594;8.734;2023-03-26T22:15:01;6.90;99.90
34574;DHT22;20809;49.594;8.734;2023-03-26T22:18:04;6.90;99.90
34574;DHT22;20809;49.594;8.734;2023-03-26T22:21:04;6.80;99.90
34574;DHT22;20809;49.594;8.734;2023-03-26T22:24:06;6.70;99.90
34574;DHT22;20809;49.594;8.734;2023-03-26T22:27:08;6.60;99.90
34574;DHT22;20809;49.594;8.734;2023-03-26T22:30:09;6.50;99.90
34574;DHT22;20809;49.594;8.734;2023-03-26T22:33:10;6.40;99.90
34574;DHT22;20809;49.594;8.734;2023-03-26T22:36:11;6.50;99.90
34574;DHT22;20809;49.594;8.734;2023-03-26T22:39:12;6.40;99.90
34574;DHT22;20809;49.594;8.734;2023-03-26T22:42:13;6.40;99.90
34574;DHT22;20809;49.594;8.734;2023-03-26T22:45:15;6.40;99.90
34574;DHT22;20809;49.594;8.734;2023-03-26T22:48:16;6.30;99.90
34574;DHT22;20809;49.594;8.734;2023-03-26T22:51:17;6.30;99.90
34574;DHT22;20809;49.594;8.734;2023-03-26T22:54:18;6.20;99.90
34574;DHT22;20809;49.594;8.734;2023-03-26T22:57:19;6.20;99.90
34574;DHT22;20809;49.594;8.734;2023-03-26T23:00:21;6.10;99.90
34574;DHT22;20809;49.594;8.734;2023-03-26T23:03:22;6.10;99.90
34574;DHT22;20809;49.594;8.734;2023-03-26T23:06:23;6.00;99.90
34574;DHT22;20809;49.594;8.734;2023-03-26T23:09:25;6.00;99.90
34574;DHT22;20809;49.594;8.734;2023-03-26T23:12:26;6.00;99.90
34574;DHT22;20809;49.594;8.734;2023-03-26T23:15:27;6.00;99.90
34574;DHT22;20809;49.594;8.734;2023-03-26T23:18:29;6.00;99.90
34574;DHT22;20809;49.594;8.734;2023-03-26T23:21:31;6.00;99.90
34574;DHT22;20809;49.594;8.734;2023-03-26T23:24:31;6.00;99.90
34574;DHT22;20809;49.594;8.734;2023-03-26T23:27:32;6.00;99.90
34574;DHT22;20809;49.594;8.734;2023-03-26T23:30:33;5.90;99.90
34574;DHT22;20809;49.594;8.734;2023-03-26T23:33:37;5.90;99.90
34574;DHT22;20809;49.594;8.734;2023-03-26T23:36:38;5.80;99.90
34574;DHT22;20809;49.594;8.734;2023-03-26T23:39:40;5.80;99.90
34574;DHT22;20809;49.594;8.734;2023-03-26T23:42:42;5.70;99.90
34574;DHT22;20809;49.594;8.734;2023-03-26T23:45:44;5.50;99.90
34574;DHT22;20809;49.594;8.734;2023-03-26T23:48:44;5.40;99.90
34574;DHT22;20809;49.594;8.734;2023-03-26T23:51:50;5.40;99.90
34574;DHT22;20809;49.594;8.734;2023-03-26T23:54:51;5.40;99.90
34574;DHT22;20809;49.594;8.734;2023-03-26T23:57:53;5.30;99.90
